createdAt,value
2022-10-02T00:02:20.450Z,12.87
2022-10-02T00:05:28.186Z,12.90
2022-10-02T00:08:16.878Z,12.85
2022-10-02T00:11:03.253Z,12.77
2022-10-02T00:13:48.476Z,12.69
2022-10-02T00:16:26.264Z,12.67
2022-10-02T00:18:55.668Z,12.59
2022-10-02T00:21:34.545Z,12.62
2022-10-02T00:24:04.844Z,12.56
2022-10-02T00:26:55.405Z,12.45
2022-10-02T00:29:39.343Z,12.34
2022-10-02T00:32:31.219Z,12.29
2022-10-02T00:35:20.385Z,12.33
2022-10-02T00:38:12.149Z,12.30
2022-10-02T00:40:53.908Z,12.28
2022-10-02T00:43:35.009Z,12.24
2022-10-02T00:46:10.720Z,12.23
2022-10-02T00:48:47.094Z,12.16
2022-10-02T00:51:40.988Z,12.12
2022-10-02T00:54:19.685Z,12.08
2022-10-02T00:57:02.764Z,12.08
2022-10-02T00:59:44.842Z,12.13
2022-10-02T01:02:31.792Z,12.12
2022-10-02T01:05:02.303Z,12.17
2022-10-02T01:07:29.472Z,12.12
2022-10-02T01:09:56.718Z,12.17
2022-10-02T01:12:24.421Z,12.13
2022-10-02T01:14:51.191Z,12.19
2022-10-02T01:17:28.239Z,12.10
2022-10-02T01:19:56.716Z,12.10
2022-10-02T01:22:29.270Z,12.15
2022-10-02T01:24:57.825Z,12.13
2022-10-02T01:27:25.951Z,12.18
2022-10-02T01:30:00.251Z,12.15
2022-10-02T01:32:31.653Z,12.10
2022-10-02T01:35:00.872Z,12.11
2022-10-02T01:37:31.591Z,12.05
2022-10-02T01:40:04.082Z,12.11
2022-10-02T01:42:31.752Z,12.05
2022-10-02T01:44:58.856Z,12.06
2022-10-02T01:47:50.247Z,12.02
2022-10-02T01:50:47.569Z,11.97
2022-10-02T01:53:23.832Z,11.93
2022-10-02T01:56:00.804Z,11.97
2022-10-02T01:58:45.925Z,12.05
2022-10-02T02:01:39.902Z,12.01
2022-10-02T02:04:13.097Z,12.01
2022-10-02T02:06:49.875Z,12.03
2022-10-02T02:09:29.983Z,12.03
2022-10-02T02:12:12.230Z,11.91
2022-10-02T02:14:48.107Z,11.97
2022-10-02T02:17:26.933Z,11.91
2022-10-02T02:20:05.124Z,11.84
2022-10-02T02:22:36.302Z,11.84
2022-10-02T02:25:25.384Z,11.83
2022-10-02T02:27:57.233Z,11.85
2022-10-02T02:30:25.286Z,11.84
2022-10-02T02:33:18.306Z,11.83
2022-10-02T02:35:50.483Z,11.70
2022-10-02T02:38:31.669Z,11.63
2022-10-02T02:41:06.088Z,11.58
2022-10-02T02:43:41.350Z,11.50
2022-10-02T02:46:16.300Z,11.49
2022-10-02T02:48:48.323Z,11.47
2022-10-02T02:51:23.708Z,11.42
2022-10-02T02:54:36.539Z,11.41
2022-10-02T02:57:06.229Z,11.42
2022-10-02T02:59:36.031Z,11.47
2022-10-02T03:02:02.937Z,11.43
2022-10-02T03:04:30.088Z,11.36
2022-10-02T03:07:01.128Z,11.34
2022-10-02T03:09:30.324Z,11.30
2022-10-02T03:12:24.503Z,11.39
2022-10-02T03:15:00.607Z,11.39
2022-10-02T03:17:33.424Z,11.41
2022-10-02T03:20:18.600Z,11.47
2022-10-02T03:23:09.887Z,11.56
2022-10-02T03:25:53.925Z,11.65
2022-10-02T03:28:54.209Z,11.75
2022-10-02T03:31:20.939Z,11.86
2022-10-02T03:33:50.214Z,11.91
2022-10-02T03:36:21.204Z,11.92
2022-10-02T03:39:00.729Z,11.95
2022-10-02T03:41:36.244Z,11.98
2022-10-02T03:44:02.992Z,12.06
2022-10-02T03:46:29.832Z,12.15
2022-10-02T03:48:56.808Z,12.22
2022-10-02T03:51:24.375Z,12.26
2022-10-02T03:53:52.144Z,12.23
2022-10-02T03:56:34.191Z,12.26
2022-10-02T03:59:09.645Z,12.34
2022-10-02T04:01:48.193Z,12.44
2022-10-02T04:04:23.096Z,12.44
2022-10-02T04:07:04.791Z,12.44
2022-10-02T04:09:39.989Z,12.39
2022-10-02T04:12:13.224Z,12.37
2022-10-02T04:14:44.610Z,12.49
2022-10-02T04:17:26.443Z,12.44
2022-10-02T04:20:00.023Z,12.44
2022-10-02T04:22:32.949Z,12.35
2022-10-02T04:25:07.041Z,12.21
2022-10-02T04:27:50.439Z,12.17
2022-10-02T04:30:19.988Z,12.28
2022-10-02T04:32:47.620Z,12.28
2022-10-02T04:35:17.587Z,12.37
2022-10-02T04:37:52.111Z,12.42
2022-10-02T04:40:27.946Z,12.34
2022-10-02T04:43:16.352Z,12.17
2022-10-02T04:46:18.654Z,12.01
2022-10-02T04:48:54.285Z,12.06
2022-10-02T04:51:42.817Z,11.97
2022-10-02T04:54:31.186Z,11.93
2022-10-02T04:57:25.700Z,11.97
2022-10-02T04:59:55.295Z,11.94
2022-10-02T05:02:44.098Z,11.87
2022-10-02T05:05:43.099Z,11.89
2022-10-02T05:08:38.243Z,11.86
2022-10-02T05:11:43.288Z,11.85
2022-10-02T05:14:32.094Z,11.87
2022-10-02T05:17:16.850Z,11.86
2022-10-02T05:20:21.834Z,11.93
2022-10-02T05:23:16.198Z,11.95
2022-10-02T05:26:09.652Z,12.03
2022-10-02T05:28:53.477Z,12.00
2022-10-02T05:31:30.645Z,12.00
2022-10-02T05:34:16.870Z,12.07
2022-10-02T05:37:09.635Z,12.16
2022-10-02T05:39:46.622Z,12.13
2022-10-02T05:42:31.163Z,12.17
2022-10-02T05:45:21.632Z,12.20
2022-10-02T05:47:50.880Z,12.29
2022-10-02T05:50:27.397Z,12.29
2022-10-02T05:53:07.675Z,12.35
2022-10-02T05:55:43.643Z,12.44
2022-10-02T05:58:16.768Z,12.49
2022-10-02T06:00:49.642Z,12.53
2022-10-02T06:03:48.343Z,12.58
2022-10-02T06:06:24.215Z,12.62
2022-10-02T06:08:58.588Z,12.72
2022-10-02T06:11:33.801Z,12.95
2022-10-02T06:14:21.374Z,12.89
2022-10-02T06:16:55.847Z,12.97
2022-10-02T06:19:33.818Z,13.10
2022-10-02T06:22:18.466Z,13.14
2022-10-02T06:24:48.276Z,13.13
2022-10-02T06:27:31.598Z,13.21
2022-10-02T06:30:02.598Z,13.22
2022-10-02T06:32:37.313Z,13.29
2022-10-02T06:35:16.236Z,13.29
2022-10-02T06:37:50.899Z,13.31
2022-10-02T06:40:37.776Z,13.39
2022-10-02T06:43:31.947Z,13.49
2022-10-02T06:46:13.616Z,13.52
2022-10-02T06:48:46.368Z,13.57
2022-10-02T06:51:19.792Z,13.57
2022-10-02T06:54:08.898Z,13.64
2022-10-02T06:56:43.474Z,13.73
2022-10-02T06:59:31.760Z,13.67
2022-10-02T07:02:47.805Z,13.84
2022-10-02T07:05:47.120Z,14.01
2022-10-02T07:08:27.335Z,14.10
2022-10-02T07:10:57.110Z,14.06
2022-10-02T07:13:59.284Z,14.10
2022-10-02T07:16:41.472Z,14.11
2022-10-02T07:19:14.324Z,14.20
2022-10-02T07:21:48.570Z,14.08
2022-10-02T07:25:00.555Z,14.28
2022-10-02T07:27:42.619Z,14.49
2022-10-02T07:30:12.880Z,14.47
2022-10-02T07:32:59.285Z,14.42
2022-10-02T07:35:39.908Z,14.67
2022-10-02T07:38:43.102Z,14.75
2022-10-02T07:41:28.316Z,14.71
2022-10-02T07:44:09.931Z,15.03
2022-10-02T07:46:39.856Z,15.22
2022-10-02T07:49:44.342Z,15.28
2022-10-02T07:52:20.574Z,15.13
2022-10-02T07:55:35.628Z,15.37
2022-10-02T07:58:12.486Z,15.58
2022-10-02T08:00:47.622Z,15.42
2022-10-02T08:03:55.474Z,15.52
2022-10-02T08:06:22.320Z,15.47
2022-10-02T08:09:16.172Z,15.54
2022-10-02T08:12:12.381Z,15.74
2022-10-02T08:14:46.168Z,15.85
2022-10-02T08:17:35.635Z,15.74
2022-10-02T08:20:31.465Z,15.97
2022-10-02T08:23:02.423Z,16.26
2022-10-02T08:25:36.735Z,16.26
2022-10-02T08:28:18.073Z,16.47
2022-10-02T08:30:45.200Z,16.59
2022-10-02T08:33:19.960Z,16.74
2022-10-02T08:36:13.197Z,16.72
2022-10-02T08:38:44.100Z,16.71
2022-10-02T08:41:10.988Z,16.83
2022-10-02T08:43:59.477Z,16.73
2022-10-02T08:46:39.799Z,16.69
2022-10-02T08:49:41.887Z,16.80
2022-10-02T08:52:11.777Z,16.99
2022-10-02T08:55:06.142Z,17.33
2022-10-02T08:57:45.350Z,17.37
2022-10-02T09:00:15.113Z,17.68
2022-10-02T09:03:19.522Z,17.70
2022-10-02T09:05:49.156Z,17.72
2022-10-02T09:08:53.314Z,17.97
2022-10-02T09:11:44.924Z,17.87
2022-10-02T09:14:37.345Z,18.19
2022-10-02T09:17:06.614Z,17.85
2022-10-02T09:20:04.518Z,17.82
2022-10-02T09:22:52.837Z,18.02
2022-10-02T09:26:04.928Z,17.92
2022-10-02T09:29:19.004Z,17.68
2022-10-02T09:31:46.204Z,18.06
2022-10-02T09:34:54.609Z,18.11
2022-10-02T09:37:44.101Z,18.42
2022-10-02T09:40:26.849Z,18.72
2022-10-02T09:43:15.486Z,18.54
2022-10-02T09:46:20.056Z,18.56
2022-10-02T09:49:11.582Z,18.83
2022-10-02T09:52:02.976Z,18.14
2022-10-02T09:54:38.960Z,18.29
2022-10-02T09:57:11.609Z,17.84
2022-10-02T09:59:58.262Z,17.97
2022-10-02T10:02:27.848Z,17.98
2022-10-02T10:05:16.138Z,17.89
2022-10-02T10:08:18.409Z,18.40
2022-10-02T10:11:18.782Z,17.90
2022-10-02T10:14:11.884Z,18.20
2022-10-02T10:17:09.022Z,18.35
2022-10-02T10:20:14.672Z,18.31
2022-10-02T10:23:00.119Z,18.16
2022-10-02T10:25:38.619Z,18.07
2022-10-02T10:28:33.870Z,17.85
2022-10-02T10:31:45.518Z,17.64
2022-10-02T10:34:46.241Z,17.18
2022-10-02T10:37:37.584Z,17.25
2022-10-02T10:40:10.380Z,17.60
2022-10-02T10:43:16.584Z,17.56
2022-10-02T10:46:14.699Z,17.57
2022-10-02T10:49:10.475Z,17.59
2022-10-02T10:52:25.253Z,17.26
2022-10-02T10:55:12.477Z,17.21
2022-10-02T10:58:01.279Z,17.12
2022-10-02T11:00:44.315Z,17.17
2022-10-02T11:03:33.152Z,17.30
2022-10-02T11:06:30.166Z,17.41
2022-10-02T11:09:14.689Z,17.65
2022-10-02T11:12:29.355Z,17.53
2022-10-02T11:15:34.403Z,17.50
2022-10-02T11:18:14.628Z,17.25
2022-10-02T11:20:44.468Z,17.38
2022-10-02T11:23:18.486Z,17.11
2022-10-02T11:26:07.868Z,17.23
2022-10-02T11:28:59.494Z,17.38
2022-10-02T11:31:48.331Z,17.80
2022-10-02T11:34:42.777Z,18.83
2022-10-02T11:37:42.619Z,20.37
2022-10-02T11:40:27.315Z,20.10
2022-10-02T11:42:57.140Z,20.25
2022-10-02T11:45:37.271Z,20.60
2022-10-02T11:48:28.688Z,20.62
2022-10-02T11:51:13.310Z,20.74
2022-10-02T11:54:05.652Z,21.49
2022-10-02T11:57:00.506Z,21.91
2022-10-02T12:00:08.687Z,22.21
2022-10-02T12:03:01.413Z,23.85
2022-10-02T12:05:57.812Z,23.68
2022-10-02T12:08:48.947Z,23.56
2022-10-02T12:11:22.130Z,22.70
2022-10-02T12:14:07.284Z,23.47
2022-10-02T12:16:57.118Z,23.30
2022-10-02T12:20:10.182Z,22.82
2022-10-02T12:23:13.879Z,24.17
2022-10-02T12:26:21.993Z,24.20
2022-10-02T12:28:56.109Z,22.05
2022-10-02T12:31:37.139Z,22.58
2022-10-02T12:34:25.631Z,22.91
2022-10-02T12:37:01.690Z,23.00
2022-10-02T12:39:52.604Z,21.38
2022-10-02T12:42:54.952Z,22.26
2022-10-02T12:45:33.978Z,23.32
2022-10-02T12:48:23.237Z,23.62
2022-10-02T12:51:27.860Z,23.33
2022-10-02T12:54:22.074Z,21.55
2022-10-02T12:57:39.402Z,20.71
2022-10-02T13:00:16.291Z,19.34
2022-10-02T13:03:07.070Z,19.16
2022-10-02T13:06:11.252Z,18.89
2022-10-02T13:08:51.404Z,18.54
2022-10-02T13:11:55.671Z,18.55
2022-10-02T13:14:23.426Z,18.16
2022-10-02T13:17:06.263Z,18.70
2022-10-02T13:19:39.571Z,18.65
2022-10-02T13:22:18.473Z,18.25
2022-10-02T13:24:58.458Z,18.06
2022-10-02T13:27:49.533Z,17.94
2022-10-02T13:30:21.121Z,18.18
2022-10-02T13:33:18.092Z,18.14
2022-10-02T13:36:04.084Z,17.64
2022-10-02T13:38:51.344Z,17.36
2022-10-02T13:41:51.919Z,17.05
2022-10-02T13:44:34.081Z,16.93
2022-10-02T13:47:03.632Z,16.90
2022-10-02T13:49:54.080Z,16.80
2022-10-02T13:52:41.413Z,16.78
2022-10-02T13:55:26.512Z,16.73
2022-10-02T13:58:19.703Z,16.67
2022-10-02T14:01:12.336Z,16.80
2022-10-02T14:03:58.157Z,16.98
2022-10-02T14:06:39.240Z,17.11
2022-10-02T14:09:24.940Z,17.16
2022-10-02T14:12:20.541Z,17.05
2022-10-02T14:15:08.887Z,16.87
2022-10-02T14:18:22.902Z,17.01
2022-10-02T14:21:11.499Z,16.98
2022-10-02T14:24:12.007Z,16.99
2022-10-02T14:26:50.544Z,16.98
2022-10-02T14:29:23.826Z,16.99
2022-10-02T14:32:02.920Z,17.07
2022-10-02T14:34:47.923Z,16.85
2022-10-02T14:37:34.062Z,16.54
2022-10-02T14:40:11.593Z,16.57
2022-10-02T14:42:54.069Z,16.50
2022-10-02T14:45:54.638Z,16.37
2022-10-02T14:48:40.784Z,16.40
2022-10-02T14:51:45.988Z,16.47
2022-10-02T14:54:18.785Z,16.20
2022-10-02T14:56:59.075Z,16.14
2022-10-02T14:59:47.678Z,16.12
2022-10-02T15:02:48.519Z,16.19
2022-10-02T15:05:18.294Z,16.09
2022-10-02T15:07:45.604Z,16.02
2022-10-02T15:10:28.199Z,16.04
2022-10-02T15:13:06.905Z,16.08
2022-10-02T15:15:45.118Z,16.01
2022-10-02T15:18:38.426Z,15.92
2022-10-02T15:21:33.855Z,15.88
2022-10-02T15:24:28.356Z,15.78
2022-10-02T15:27:24.573Z,15.61
2022-10-02T15:30:15.658Z,15.58
2022-10-02T15:33:08.913Z,15.68
2022-10-02T15:36:01.585Z,15.69
2022-10-02T15:38:31.030Z,15.59
2022-10-02T15:41:12.889Z,15.50
2022-10-02T15:43:48.286Z,15.46
2022-10-02T15:46:42.335Z,15.39
2022-10-02T15:49:40.115Z,15.35
2022-10-02T15:52:14.182Z,15.27
2022-10-02T15:55:19.629Z,15.25
2022-10-02T15:58:08.269Z,15.25
2022-10-02T16:01:14.760Z,15.05
2022-10-02T16:03:50.134Z,15.00
2022-10-02T16:10:13.424Z,14.84
2022-10-02T16:13:20.064Z,14.78
2022-10-02T16:15:53.221Z,14.75
2022-10-02T16:18:45.912Z,14.76
2022-10-02T16:21:31.369Z,14.77
2022-10-02T16:24:24.872Z,14.69
2022-10-02T16:27:00.581Z,14.74
2022-10-02T16:29:58.157Z,14.68
2022-10-02T16:32:39.067Z,14.72
2022-10-02T16:35:21.052Z,14.69
2022-10-02T16:38:04.801Z,14.70
2022-10-02T16:40:56.811Z,14.76
2022-10-02T16:43:59.060Z,14.69
2022-10-02T16:46:50.851Z,14.60
2022-10-02T16:49:40.603Z,14.66
2022-10-02T16:52:20.247Z,14.70
2022-10-02T16:55:19.267Z,14.64
2022-10-02T16:57:49.854Z,14.64
2022-10-02T17:00:24.182Z,14.68
2022-10-02T17:03:15.194Z,14.74
2022-10-02T17:05:51.019Z,14.72
2022-10-02T17:08:39.044Z,14.64
2022-10-02T17:11:26.755Z,14.61
2022-10-02T17:14:18.573Z,14.62
2022-10-02T17:16:55.750Z,14.60
2022-10-02T17:19:45.879Z,14.59
2022-10-02T17:22:54.063Z,14.57
2022-10-02T17:25:36.046Z,14.67
2022-10-02T17:28:29.833Z,14.58
2022-10-02T17:31:15.210Z,14.55
2022-10-02T17:33:51.034Z,14.42
2022-10-02T17:36:23.811Z,14.44
2022-10-02T17:39:06.053Z,14.41
2022-10-02T17:42:14.622Z,14.42
2022-10-02T17:45:07.945Z,14.36
2022-10-02T17:47:56.676Z,14.32
2022-10-02T17:50:38.384Z,14.38
2022-10-02T17:54:02.399Z,14.35
2022-10-02T17:57:05.033Z,14.36
2022-10-02T17:59:34.717Z,14.37
2022-10-02T18:02:16.607Z,14.42
2022-10-02T18:05:02.155Z,14.41
2022-10-02T18:07:44.183Z,14.36
2022-10-02T18:10:48.052Z,14.45
2022-10-02T18:13:36.762Z,14.47
2022-10-02T18:16:22.294Z,14.48
2022-10-02T18:19:23.870Z,14.52
2022-10-02T18:22:28.106Z,14.51
2022-10-02T18:25:02.264Z,14.49
2022-10-02T18:27:48.922Z,14.53
2022-10-02T18:30:20.710Z,14.55
2022-10-02T18:33:06.263Z,14.46
2022-10-02T18:35:54.186Z,14.47
2022-10-02T18:38:24.191Z,14.60
2022-10-02T18:41:04.638Z,14.54
2022-10-02T18:43:38.839Z,14.51
2022-10-02T18:46:20.941Z,14.55
2022-10-02T18:49:02.766Z,14.52
2022-10-02T18:51:44.891Z,14.50
2022-10-02T18:54:24.852Z,14.52
2022-10-02T18:57:02.280Z,14.44
2022-10-02T18:59:47.470Z,14.46
2022-10-02T19:02:56.950Z,14.41
2022-10-02T19:05:23.653Z,14.36
2022-10-02T19:08:02.861Z,14.38
2022-10-02T19:10:32.251Z,14.37
2022-10-02T19:13:18.108Z,14.34
2022-10-02T19:15:48.451Z,14.35
2022-10-02T19:18:22.678Z,14.26
2022-10-02T19:20:54.481Z,14.32
2022-10-02T19:23:34.338Z,14.32
2022-10-02T19:26:17.234Z,14.31
2022-10-02T19:28:51.496Z,14.41
2022-10-02T19:31:26.873Z,14.28
2022-10-02T19:34:25.668Z,14.27
2022-10-02T19:36:57.129Z,14.26
2022-10-02T19:39:32.162Z,14.29
2022-10-02T19:42:07.693Z,14.26
2022-10-02T19:44:38.372Z,14.30
2022-10-02T19:47:16.874Z,14.24
2022-10-02T19:49:50.401Z,14.21
2022-10-02T19:52:46.826Z,14.21
2022-10-02T19:55:24.019Z,14.18
2022-10-02T19:57:57.065Z,14.12
2022-10-02T20:00:24.126Z,14.12
2022-10-02T20:02:56.059Z,14.08
2022-10-02T20:05:29.197Z,14.16
2022-10-02T20:08:05.715Z,14.19
2022-10-02T20:11:00.412Z,14.04
2022-10-02T20:13:37.023Z,14.08
2022-10-02T20:16:35.559Z,14.05
2022-10-02T20:19:04.565Z,14.05
2022-10-02T20:21:44.923Z,13.99
2022-10-02T20:24:23.625Z,13.96
2022-10-02T20:26:55.129Z,13.95
2022-10-02T20:29:29.822Z,13.99
2022-10-02T20:32:04.765Z,13.87
2022-10-02T20:34:42.328Z,13.90
2022-10-02T20:37:14.323Z,13.82
2022-10-02T20:39:51.412Z,13.84
2022-10-02T20:42:29.546Z,13.84
2022-10-02T20:44:56.776Z,13.83
2022-10-02T20:47:45.186Z,13.85
2022-10-02T20:50:55.025Z,13.81
2022-10-02T20:53:57.356Z,13.73
2022-10-02T20:56:25.374Z,13.80
2022-10-02T20:59:16.781Z,13.79
2022-10-02T21:02:00.186Z,13.73
2022-10-02T21:05:00.708Z,13.77
2022-10-02T21:08:41.492Z,13.72
2022-10-02T21:11:54.483Z,13.67
2022-10-02T21:14:54.522Z,13.69
2022-10-02T21:18:00.850Z,13.70
2022-10-02T21:20:53.587Z,13.82
2022-10-02T21:23:31.207Z,13.65
2022-10-02T21:26:27.376Z,13.67
2022-10-02T21:29:32.702Z,13.75
2022-10-02T21:32:25.771Z,13.58
2022-10-02T21:35:20.119Z,13.56
2022-10-02T21:37:55.646Z,13.53
2022-10-02T21:40:25.364Z,13.51
2022-10-02T21:43:03.938Z,13.55
2022-10-02T21:46:08.555Z,13.52
2022-10-02T21:49:14.145Z,13.57
2022-10-02T21:51:53.896Z,13.54
2022-10-02T21:54:29.904Z,13.48
2022-10-02T21:57:15.015Z,13.39
2022-10-02T22:00:13.055Z,13.44
2022-10-02T22:03:28.344Z,13.38
2022-10-02T22:06:01.850Z,13.37
2022-10-02T22:08:54.967Z,13.32
2022-10-02T22:11:48.908Z,13.26
2022-10-02T22:14:23.418Z,13.15
2022-10-02T22:17:25.704Z,13.14
2022-10-02T22:20:07.995Z,13.18
2022-10-02T22:22:55.214Z,13.14
2022-10-02T22:25:33.992Z,13.08
2022-10-02T22:28:24.225Z,13.08
2022-10-02T22:30:57.232Z,13.09
2022-10-02T22:34:06.256Z,13.08
2022-10-02T22:37:00.811Z,13.03
2022-10-02T22:39:31.084Z,13.08
2022-10-02T22:42:05.561Z,12.96
2022-10-02T22:44:44.845Z,13.00
2022-10-02T22:47:29.802Z,12.99
2022-10-02T22:50:08.197Z,12.96
2022-10-02T22:52:49.003Z,12.93
2022-10-02T22:55:24.195Z,12.91
2022-10-02T22:58:16.984Z,12.90
2022-10-02T23:00:57.587Z,12.94
2022-10-02T23:03:47.703Z,12.88
2022-10-02T23:07:02.256Z,12.82
2022-10-02T23:10:07.611Z,12.83
2022-10-02T23:12:51.654Z,12.83
2022-10-02T23:15:41.836Z,12.85
2022-10-02T23:18:33.360Z,12.79
2022-10-02T23:21:45.852Z,12.80
2022-10-02T23:24:13.176Z,12.85
2022-10-02T23:27:03.355Z,12.72
2022-10-02T23:29:45.342Z,12.73
2022-10-02T23:32:31.655Z,12.69
2022-10-02T23:35:23.964Z,12.68
2022-10-02T23:38:00.948Z,12.62
2022-10-02T23:41:07.533Z,12.69
2022-10-02T23:43:43.185Z,12.58
2022-10-02T23:46:15.134Z,12.61
2022-10-02T23:48:42.917Z,12.66
2022-10-02T23:51:15.585Z,12.60
2022-10-02T23:54:01.377Z,12.55
2022-10-02T23:57:08.264Z,12.52
2022-10-02T23:59:53.667Z,12.51
